Time;durP1;ratioP1;P1;durP2;ratioP2;P2;SDS_P1;SDS_P2;PMS_P1;PMS_P2;Temp;Humidity;BMP_temperature;BMP_pressure;BME280_temperature;BME280_humidity;BME280_pressure;Samples;Min_cycle;Max_cycle;Signal;HPM_P1;HPM_P2
2023/05/13 00:01:47;;;;;;;14.75;13.10;;;12.20;91.20;;;;;;5072331;28;20045;-66
2023/05/13 00:04:13;;;;;;;16.92;11.65;;;11.90;95.40;;;;;;5073341;28;20032;-66
2023/05/13 00:06:38;;;;;;;12.93;11.52;;;11.80;99.90;;;;;;5073126;28;20032;-66
2023/05/13 00:09:04;;;;;;;15.40;12.27;;;9.50;99.90;;;;;;5076172;28;20040;-66
2023/05/13 00:11:29;;;;;;;14.35;11.98;;;11.70;99.90;;;;;;5076396;28;20052;-66
2023/05/13 00:13:56;;;;;;;15.43;11.68;;;11.60;99.90;;;;;;5076916;28;20048;-66
2023/05/13 00:16:23;;;;;;;16.75;12.85;;;11.60;99.90;;;;;;5076715;28;20039;-66
2023/05/13 00:18:49;;;;;;;13.23;11.82;;;11.40;99.90;;;;;;5076491;28;20029;-66
2023/05/13 00:21:14;;;;;;;15.57;11.95;;;11.40;99.90;;;;;;5076461;28;20039;-66
2023/05/13 00:23:40;;;;;;;14.18;11.98;;;11.70;99.90;;;;;;5076695;28;20458;-66
2023/05/13 00:26:06;;;;;;;14.43;12.30;;;11.30;99.90;;;;;;5076692;28;20446;-66
2023/05/13 00:28:31;;;;;;;17.15;12.88;;;11.20;99.90;;;;;;5076829;28;20115;-66
2023/05/13 00:30:57;;;;;;;16.15;12.48;;;11.20;99.90;;;;;;5076802;28;20068;-66
2023/05/13 00:33:22;;;;;;;14.30;12.55;;;11.00;99.90;;;;;;5076555;28;20131;-66
2023/05/13 00:35:48;;;;;;;13.82;12.15;;;11.00;99.90;;;;;;5075951;28;20060;-66
2023/05/13 00:38:13;;;;;;;13.98;12.25;;;11.00;99.90;;;;;;5076126;28;20119;-66
2023/05/13 00:40:39;;;;;;;16.67;13.00;;;10.90;99.90;;;;;;5076361;28;20513;-66
2023/05/13 00:43:05;;;;;;;16.60;13.85;;;10.80;99.90;;;;;;5076156;28;20032;-66
2023/05/13 00:45:31;;;;;;;20.73;13.38;;;10.80;99.90;;;;;;5075845;28;20021;-66
2023/05/13 00:47:58;;;;;;;15.40;13.60;;;10.70;99.90;;;;;;5075704;28;20062;-66
2023/05/13 00:50:23;;;;;;;16.25;12.55;;;10.60;99.90;;;;;;5076197;28;20392;-66
2023/05/13 00:52:50;;;;;;;14.02;12.40;;;10.60;99.90;;;;;;5076214;28;20032;-66
2023/05/13 00:55:16;;;;;;;15.55;13.05;;;10.50;99.90;;;;;;5076232;28;20028;-66
2023/05/13 00:57:42;;;;;;;14.25;12.63;;;10.40;99.90;;;;;;5075888;28;20466;-66
2023/05/13 01:00:09;;;;;;;18.80;13.93;;;10.40;99.90;;;;;;5075606;28;20044;-66
2023/05/13 01:02:52;;;;;;;16.73;13.80;;;10.40;99.90;;;;;;5075754;28;20086;-66
2023/05/13 01:05:40;;;;;;;15.73;14.00;;;10.30;99.90;;;;;;5074218;28;20032;-65
2023/05/13 01:08:19;;;;;;;15.90;13.32;;;10.30;99.90;;;;;;5075653;28;20259;-66
2023/05/13 01:10:50;;;;;;;16.30;12.90;;;10.20;99.90;;;;;;5075875;28;20454;-65
2023/05/13 01:13:22;;;;;;;18.55;13.68;;;10.20;99.90;;;;;;5075472;28;20036;-66
2023/05/13 01:15:55;;;;;;;17.03;14.10;;;10.10;99.90;;;;;;5075969;28;20036;-65
2023/05/13 01:18:32;;;;;;;16.85;14.43;;;10.10;99.90;;;;;;5075732;28;20361;-66
2023/05/13 01:21:00;;;;;;;14.25;12.75;;;10.00;99.90;;;;;;5075596;28;20042;-65
2023/05/13 01:23:25;;;;;;;17.30;14.25;;;10.00;99.90;;;;;;5075641;28;20362;-65
2023/05/13 01:25:51;;;;;;;18.40;14.80;;;9.90;99.90;;;;;;5075275;28;20036;-65
2023/05/13 01:28:17;;;;;;;16.40;14.25;;;9.90;99.90;;;;;;5075222;28;20081;-65
2023/05/13 01:30:42;;;;;;;17.10;15.25;;;9.90;99.90;;;;;;5074919;28;20039;-65
2023/05/13 01:33:09;;;;;;;23.08;15.95;;;9.90;99.90;;;;;;5075144;28;20033;-65
2023/05/13 01:35:35;;;;;;;21.83;15.45;;;9.80;99.90;;;;;;5075400;28;20471;-65
2023/05/13 01:38:03;;;;;;;17.27;14.95;;;9.80;99.90;;;;;;5074793;28;20032;-65
2023/05/13 01:40:29;;;;;;;17.92;14.48;;;9.80;99.90;;;;;;5074821;28;20513;-65
2023/05/13 01:42:54;;;;;;;16.60;14.52;;;9.70;99.90;;;;;;5074881;28;20031;-65
2023/05/13 01:45:20;;;;;;;19.33;15.93;;;9.70;99.90;;;;;;5075324;28;20107;-66
2023/05/13 01:47:45;;;;;;;16.67;14.60;;;9.60;99.90;;;;;;5075108;28;20062;-65
2023/05/13 01:50:11;;;;;;;22.75;16.40;;;9.60;99.90;;;;;;5074921;28;20029;-65
2023/05/13 01:52:36;;;;;;;19.27;15.55;;;9.60;99.90;;;;;;5075004;28;20016;-65
2023/05/13 01:55:02;;;;;;;18.23;14.90;;;9.50;99.90;;;;;;5075004;28;20090;-65
2023/05/13 01:57:28;;;;;;;18.58;15.15;;;9.50;99.90;;;;;;5074650;28;20466;-65
2023/05/13 01:59:53;;;;;;;19.58;15.70;;;9.50;99.90;;;;;;5074517;28;20033;-65
2023/05/13 02:02:19;;;;;;;18.73;16.52;;;9.50;99.90;;;;;;5074502;28;20040;-65
2023/05/13 02:04:44;;;;;;;22.33;17.33;;;9.40;99.90;;;;;;5074493;28;20030;-65
2023/05/13 02:07:10;;;;;;;20.42;17.35;;;9.40;99.90;;;;;;5074699;28;20395;-65
2023/05/13 02:09:35;;;;;;;22.00;18.20;;;9.40;99.90;;;;;;5074689;28;20028;-65
2023/05/13 02:12:01;;;;;;;21.02;17.05;;;9.40;99.90;;;;;;5074412;28;20025;-66
2023/05/13 02:14:26;;;;;;;23.02;16.75;;;9.30;99.90;;;;;;5074349;28;20424;-65
2023/05/13 02:16:52;;;;;;;23.38;17.80;;;9.30;99.90;;;;;;5074317;28;20025;-65
2023/05/13 02:19:18;;;;;;;23.05;17.60;;;9.30;99.90;;;;;;5074222;28;20032;-65
2023/05/13 02:21:44;;;;;;;25.55;18.60;;;9.30;99.90;;;;;;5073927;28;20073;-66
2023/05/13 02:24:10;;;;;;;24.92;19.63;;;9.30;99.90;;;;;;5073947;28;20024;-65
2023/05/13 02:26:35;;;;;;;24.77;18.45;;;9.30;99.90;;;;;;5073878;28;20024;-66
2023/05/13 02:29:01;;;;;;;25.30;17.88;;;9.30;99.90;;;;;;5074419;28;20033;-66
2023/05/13 02:31:26;;;;;;;23.60;18.92;;;9.20;99.90;;;;;;5073646;28;20024;-66
2023/05/13 02:33:52;;;;;;;21.38;17.98;;;9.20;99.90;;;;;;5074350;28;20102;-66
2023/05/13 02:36:17;;;;;;;22.08;17.90;;;9.20;99.90;;;;;;5074221;28;20382;-66
2023/05/13 02:38:43;;;;;;;27.05;20.52;;;9.10;99.90;;;;;;5074003;28;20039;-66
2023/05/13 02:41:08;;;;;;;28.48;20.25;;;9.10;99.90;;;;;;5073888;28;20029;-66
2023/05/13 02:43:34;;;;;;;25.05;19.73;;;9.10;99.90;;;;;;5074194;28;20149;-66
2023/05/13 02:46:01;;;;;;;24.02;20.15;;;9.30;99.90;;;;;;5074148;28;20074;-66
2023/05/13 02:48:26;;;;;;;26.55;19.17;;;9.00;99.90;;;;;;5074119;28;20024;-66
2023/05/13 02:50:52;;;;;;;23.25;19.08;;;9.00;99.90;;;;;;5074161;28;20028;-66
2023/05/13 02:53:17;;;;;;;23.20;18.90;;;9.00;99.90;;;;;;5074084;28;20103;-66
2023/05/13 02:55:43;;;;;;;24.02;18.30;;;9.00;99.90;;;;;;5073537;28;20039;-65
2023/05/13 02:58:08;;;;;;;23.60;19.02;;;8.90;99.90;;;;;;5073485;28;20367;-66
2023/05/13 03:00:34;;;;;;;23.58;18.92;;;8.90;99.90;;;;;;5073144;28;20049;-66
2023/05/13 03:02:59;;;;;;;30.55;20.55;;;8.80;99.90;;;;;;5073954;28;20417;-66
2023/05/13 03:05:25;;;;;;;26.20;20.83;;;8.80;99.90;;;;;;5073946;28;20028;-66
2023/05/13 03:07:50;;;;;;;33.15;22.30;;;8.80;99.90;;;;;;5072234;28;20028;-66
2023/05/13 03:10:16;;;;;;;25.95;21.42;;;8.80;99.90;;;;;;5089257;28;20020;-66
2023/05/13 03:12:42;;;;;;;28.33;21.27;;;8.80;99.90;;;;;;5073884;28;20459;-66
2023/05/13 03:15:08;;;;;;;25.63;21.40;;;8.80;99.90;;;;;;5073337;28;20466;-66
2023/05/13 03:17:34;;;;;;;29.88;21.70;;;8.70;99.90;;;;;;5073544;28;20017;-66
2023/05/13 03:20:00;;;;;;;25.80;20.80;;;8.80;99.90;;;;;;5073295;28;20017;-66
2023/05/13 03:22:25;;;;;;;29.77;22.55;;;8.70;99.90;;;;;;5073488;28;20049;-66
2023/05/13 03:24:51;;;;;;;31.00;22.73;;;8.70;99.90;;;;;;5073329;28;20359;-66
2023/05/13 03:27:17;;;;;;;27.10;20.45;;;8.70;99.90;;;;;;5073680;28;20016;-66
2023/05/13 03:29:42;;;;;;;28.85;22.95;;;8.90;99.90;;;;;;5073791;28;20025;-66
2023/05/13 03:32:08;;;;;;;30.35;24.35;;;8.60;99.90;;;;;;5073916;28;20025;-66
2023/05/13 03:34:35;;;;;;;29.65;24.63;;;8.60;99.90;;;;;;5073733;28;20363;-66
2023/05/13 03:37:01;;;;;;;27.88;23.10;;;8.60;99.90;;;;;;5072686;28;20107;-66
2023/05/13 03:39:26;;;;;;;31.85;24.33;;;8.60;99.90;;;;;;5073381;28;20503;-66
2023/05/13 03:41:52;;;;;;;28.98;23.30;;;8.70;99.90;;;;;;5073607;28;20017;-66
2023/05/13 03:44:17;;;;;;;32.63;23.63;;;8.70;99.90;;;;;;5076452;28;20504;-66
2023/05/13 03:46:43;;;;;;;27.85;22.35;;;8.70;99.90;;;;;;5077195;28;20394;-66
2023/05/13 03:49:09;;;;;;;25.80;21.13;;;8.80;99.90;;;;;;5076667;28;20023;-66
2023/05/13 03:51:34;;;;;;;26.60;21.77;;;8.80;99.90;;;;;;5077012;28;20470;-66
2023/05/13 03:54:01;;;;;;;29.95;23.90;;;8.80;99.90;;;;;;5076736;28;20083;-66
2023/05/13 03:56:26;;;;;;;31.63;24.23;;;8.80;99.90;;;;;;5077321;28;20027;-66
2023/05/13 03:58:52;;;;;;;27.83;23.13;;;8.90;99.90;;;;;;5077227;28;20115;-66
2023/05/13 04:01:17;;;;;;;28.50;22.92;;;8.90;99.90;;;;;;5076315;28;20096;-66
2023/05/13 04:03:45;;;;;;;27.73;22.42;;;8.80;99.90;;;;;;5076706;28;20020;-66
2023/05/13 04:06:11;;;;;;;30.25;24.30;;;8.80;99.90;;;;;;5076767;28;20051;-66
2023/05/13 04:08:36;;;;;;;29.73;22.75;;;9.00;99.90;;;;;;5076541;28;20053;-66
2023/05/13 04:11:02;;;;;;;33.72;25.17;;;8.90;99.90;;;;;;5076720;28;20102;-66
2023/05/13 04:13:27;;;;;;;30.13;23.80;;;8.90;99.90;;;;;;5076662;28;20028;-66
2023/05/13 04:15:54;;;;;;;30.15;23.73;;;8.90;99.90;;;;;;5074841;28;20063;-66
2023/05/13 04:18:20;;;;;;;29.92;23.70;;;9.00;99.90;;;;;;5076579;28;20021;-66
2023/05/13 04:20:45;;;;;;;27.50;22.27;;;9.10;99.90;;;;;;5076791;28;20466;-66
2023/05/13 04:23:11;;;;;;;30.33;23.48;;;9.30;99.90;;;;;;5076198;28;20027;-65
2023/05/13 04:25:36;;;;;;;27.77;22.40;;;9.20;99.90;;;;;;5076650;28;20439;-65
2023/05/13 04:28:02;;;;;;;30.75;23.40;;;9.20;99.90;;;;;;5076711;28;20024;-65
2023/05/13 04:30:28;;;;;;;28.00;23.35;;;9.30;99.90;;;;;;5076673;28;20111;-65
2023/05/13 04:32:53;;;;;;;28.08;22.65;;;9.40;99.90;;;;;;5076323;28;20078;-65
2023/05/13 04:35:19;;;;;;;29.40;23.25;;;9.60;99.90;;;;;;5076005;28;20029;-66
2023/05/13 04:37:44;;;;;;;26.95;21.17;;;9.90;99.90;;;;;;5076174;28;20032;-66
2023/05/13 04:40:10;;;;;;;21.92;18.98;;;10.20;99.90;;;;;;5075867;28;20029;-66
2023/05/13 04:42:36;;;;;;;23.50;18.48;;;10.40;99.90;;;;;;5075822;28;20048;-66
2023/05/13 04:45:01;;;;;;;23.95;16.92;;;10.70;99.90;;;;;;5076400;28;20031;-66
2023/05/13 04:47:27;;;;;;;19.80;15.15;;;11.00;99.90;;;;;;5075793;28;20386;-66
2023/05/13 04:49:53;;;;;;;20.45;14.70;;;11.50;99.90;;;;;;5076508;28;20111;-66
2023/05/13 04:52:19;;;;;;;20.10;14.88;;;11.80;99.90;;;;;;5075951;28;20107;-66
2023/05/13 04:54:44;;;;;;;18.63;14.20;;;11.90;99.90;;;;;;5075854;28;20040;-66
2023/05/13 04:57:10;;;;;;;19.15;13.52;;;11.90;99.90;;;;;;5075596;28;20025;-66
2023/05/13 04:59:35;;;;;;;15.23;13.63;;;12.00;99.90;;;;;;5075605;28;20466;-66
2023/05/13 05:02:01;;;;;;;19.25;13.20;;;12.20;99.90;;;;;;5076042;28;20387;-66
2023/05/13 05:04:26;;;;;;;17.13;12.98;;;12.20;89.20;;;;;;5075008;28;20062;-66
2023/05/13 05:06:52;;;;;;;17.20;13.90;;;12.10;88.20;;;;;;5075917;28;20025;-66
2023/05/13 05:09:18;;;;;;;17.50;13.95;;;12.20;92.80;;;;;;5075618;28;20036;-66
2023/05/13 05:11:44;;;;;;;15.60;13.95;;;12.20;89.00;;;;;;5075613;28;20024;-66
2023/05/13 05:14:09;;;;;;;16.92;14.25;;;12.20;94.90;;;;;;5075249;28;20070;-66
2023/05/13 05:16:35;;;;;;;19.92;14.80;;;12.20;99.90;;;;;;5075781;28;20111;-66
2023/05/13 05:19:00;;;;;;;19.52;13.88;;;12.30;99.90;;;;;;5074841;28;20118;-66
2023/05/13 05:21:26;;;;;;;15.80;14.15;;;12.40;98.90;;;;;;5075113;28;20028;-66
2023/05/13 05:23:51;;;;;;;17.25;14.50;;;12.50;90.60;;;;;;5074953;28;20020;-66
2023/05/13 05:26:17;;;;;;;18.23;14.98;;;12.60;88.00;;;;;;5075783;28;20107;-66
2023/05/13 05:28:43;;;;;;;17.27;13.40;;;12.70;92.10;;;;;;5075515;28;20059;-66
2023/05/13 05:31:09;;;;;;;20.90;13.77;;;12.90;44.50;;;;;;5075339;28;20024;-66
2023/05/13 05:33:35;;;;;;;21.05;13.02;;;13.40;56.20;;;;;;5075432;28;20039;-66
2023/05/13 05:36:01;;;;;;;16.00;11.52;;;14.30;31.90;;;;;;5075402;28;20024;-66
2023/05/13 05:38:27;;;;;;;12.70;10.25;;;15.40;1.00;;;;;;5074791;28;20500;-67
2023/05/13 05:40:52;;;;;;;12.88;10.18;;;16.90;1.00;;;;;;5075106;28;20474;-67
2023/05/13 05:43:18;;;;;;;9.80;8.75;;;18.50;99.90;;;;;;5075421;28;20104;-67
2023/05/13 05:45:45;;;;;;;12.48;7.72;;;19.90;1.00;;;;;;5075201;28;20017;-67
2023/05/13 05:48:10;;;;;;;8.48;7.50;;;21.10;99.90;;;;;;5074598;28;20462;-66
2023/05/13 05:50:36;;;;;;;8.57;7.78;;;21.80;1.00;;;;;;5073500;28;20116;-66
2023/05/13 05:53:03;;;;;;;8.13;7.25;;;22.00;99.90;;;;;;5074809;28;20024;-67
2023/05/13 05:55:30;;;;;;;8.52;7.60;;;22.70;1.00;;;;;;5074421;28;20031;-67
2023/05/13 05:57:56;;;;;;;9.35;6.82;;;22.60;1.00;;;;;;5073445;28;20029;-67
2023/05/13 06:00:22;;;;;;;8.57;7.25;;;23.00;99.90;;;;;;5073154;28;20051;-67
2023/05/13 06:02:48;;;;;;;9.90;6.93;;;22.50;1.00;;;;;;5073846;28;20052;-67
2023/05/13 06:05:14;;;;;;;9.75;6.97;;;22.90;99.90;;;;;;5074000;28;20040;-67
2023/05/13 06:07:39;;;;;;;13.18;7.53;;;22.10;99.90;;;;;;5074667;28;20017;-67
2023/05/13 06:10:06;;;;;;;11.13;6.93;;;21.20;99.90;;;;;;5074727;28;20113;-67
2023/05/13 06:12:31;;;;;;;10.38;7.43;;;20.90;99.90;;;;;;5072956;28;20028;-67
2023/05/13 06:14:57;;;;;;;8.73;6.85;;;20.80;99.90;;;;;;5074426;28;20340;-66
2023/05/13 06:17:23;;;;;;;9.10;6.53;;;21.50;99.90;;;;;;5074081;28;20028;-66
2023/05/13 06:19:49;;;;;;;11.88;7.43;;;21.80;99.90;;;;;;5074529;28;20029;-67
2023/05/13 06:22:14;;;;;;;10.45;6.75;;;22.70;99.90;;;;;;5074188;28;20060;-67
2023/05/13 06:24:41;;;;;;;8.45;6.75;;;22.50;99.90;;;;;;5074482;28;20043;-66
2023/05/13 06:27:07;;;;;;;11.80;7.97;;;22.20;99.90;;;;;;5073862;28;20358;-67
2023/05/13 06:29:32;;;;;;;8.93;7.30;;;22.30;99.90;;;;;;5074418;28;20070;-67
2023/05/13 06:31:58;;;;;;;10.98;7.47;;;22.30;99.90;;;;;;5074127;28;20020;-67
2023/05/13 06:34:24;;;;;;;8.35;7.38;;;23.40;99.90;;;;;;5074064;28;20107;-65
2023/05/13 06:36:49;;;;;;;8.65;7.20;;;24.30;29.40;;;;;;5074289;28;20032;-65
2023/05/13 06:39:15;;;;;;;9.90;7.95;;;24.00;7.00;;;;;;5073952;28;20043;-65
2023/05/13 06:41:40;;;;;;;9.40;7.80;;;24.40;1.00;;;;;;5073617;28;20091;-65
2023/05/13 06:44:06;;;;;;;9.68;7.32;;;24.90;1.00;;;;;;5073922;28;20017;-65
2023/05/13 06:46:32;;;;;;;9.73;8.02;;;24.20;1.00;;;;;;5072650;28;20044;-65
2023/05/13 06:48:58;;;;;;;10.68;7.40;;;23.60;1.00;;;;;;5074113;28;20155;-65
2023/05/13 06:51:26;;;;;;;12.25;7.68;;;23.40;1.00;;;;;;5074174;28;20489;-65
2023/05/13 06:53:52;;;;;;;12.43;7.93;;;24.30;1.00;;;;;;5074129;28;20040;-65
2023/05/13 06:56:17;;;;;;;8.63;7.72;;;24.30;1.00;;;;;;5074069;28;20033;-65
2023/05/13 06:58:43;;;;;;;9.52;7.18;;;23.80;1.00;;;;;;5074226;28;20036;-65
2023/05/13 07:01:08;;;;;;;11.20;7.43;;;22.80;1.00;;;;;;5073688;28;20045;-66
2023/05/13 07:03:34;;;;;;;15.95;7.93;;;22.50;1.00;;;;;;5073961;28;20067;-66
2023/05/13 07:05:59;;;;;;;10.13;7.78;;;22.40;17.00;;;;;;5073388;28;20024;-66
2023/05/13 07:08:25;;;;;;;9.82;7.80;;;22.80;99.90;;;;;;5073318;28;20473;-65
2023/05/13 07:10:51;;;;;;;11.50;7.90;;;22.50;1.00;;;;;;5073649;28;20029;-66
2023/05/13 07:13:18;;;;;;;9.50;7.93;;;21.70;17.60;;;;;;5073325;28;20539;-66
2023/05/13 07:15:44;;;;;;;8.88;7.97;;;20.60;99.90;;;;;;5073602;28;20027;-66
2023/05/13 07:18:10;;;;;;;13.52;8.10;;;20.20;1.00;;;;;;5076387;28;20459;-65
2023/05/13 07:20:35;;;;;;;8.95;7.85;;;20.80;1.00;;;;;;5077655;28;20036;-65
2023/05/13 07:23:01;;;;;;;10.80;7.55;;;22.30;99.90;;;;;;5077688;28;20101;-66
2023/05/13 07:25:27;;;;;;;8.68;7.78;;;23.50;99.90;;;;;;5077035;28;20020;-65
2023/05/13 07:27:52;;;;;;;8.93;7.05;;;24.40;7.10;;;;;;5076358;28;20090;-65
2023/05/13 07:30:18;;;;;;;11.10;7.55;;;25.50;1.00;;;;;;5078019;28;20020;-66
2023/05/13 07:32:44;;;;;;;10.25;7.00;;;25.00;1.00;;;;;;5077755;28;20412;-66
2023/05/13 07:35:09;;;;;;;11.88;6.90;;;25.50;1.00;;;;;;5077746;28;20130;-66
2023/05/13 07:37:35;;;;;;;9.45;6.93;;;25.40;1.00;;;;;;5077871;28;20024;-66
2023/05/13 07:40:02;;;;;;;7.95;6.63;;;25.60;1.00;;;;;;5077331;28;20020;-66
2023/05/13 07:42:28;;;;;;;8.90;7.28;;;26.90;1.00;;;;;;5077185;28;20028;-66
2023/05/13 07:44:55;;;;;;;8.63;6.88;;;25.70;1.00;;;;;;5093194;28;20111;-66
2023/05/13 07:47:20;;;;;;;8.65;6.78;;;25.20;1.00;;;;;;5076861;28;20029;-66
2023/05/13 07:49:46;;;;;;;9.02;7.22;;;24.90;1.00;;;;;;5077108;28;20085;-67
2023/05/13 07:52:11;;;;;;;8.23;6.72;;;25.30;1.00;;;;;;5077356;28;20029;-66
2023/05/13 07:54:37;;;;;;;8.65;6.35;;;25.10;1.00;;;;;;5076712;28;20029;-66
2023/05/13 07:57:03;;;;;;;7.05;6.35;;;25.60;1.00;;;;;;5077233;28;20029;-66
2023/05/13 07:59:28;;;;;;;8.15;6.65;;;25.00;1.00;;;;;;5076411;28;20063;-65
2023/05/13 08:01:54;;;;;;;8.90;6.15;;;24.60;1.00;;;;;;5076807;28;20444;-66
2023/05/13 08:04:19;;;;;;;6.97;6.03;;;26.10;1.00;;;;;;5075916;28;20409;-66
2023/05/13 08:06:45;;;;;;;10.43;6.95;;;26.80;1.00;;;;;;5076463;28;20024;-66
2023/05/13 08:09:11;;;;;;;8.43;6.63;;;27.10;1.00;;;;;;5077032;28;20032;-66
2023/05/13 08:11:37;;;;;;;11.93;6.80;;;27.70;1.00;;;;;;5076665;28;20032;-65
2023/05/13 08:14:04;;;;;;;10.10;6.72;;;27.60;1.00;;;;;;5076947;28;20036;-65
2023/05/13 08:16:29;;;;;;;8.65;6.10;;;28.10;1.00;;;;;;5076447;28;20330;-65
2023/05/13 08:18:55;;;;;;;10.27;6.38;;;28.20;1.00;;;;;;5076498;28;20108;-65
2023/05/13 08:21:20;;;;;;;7.10;6.13;;;28.00;1.00;;;;;;5076326;28;20032;-65
2023/05/13 08:23:48;;;;;;;9.50;6.20;;;28.80;1.00;;;;;;5076139;28;20031;-65
2023/05/13 08:26:14;;;;;;;7.57;5.53;;;28.60;1.00;;;;;;5076601;28;20078;-65
2023/05/13 08:28:39;;;;;;;9.95;5.75;;;29.20;7.50;;;;;;5075813;28;20029;-65
2023/05/13 08:31:05;;;;;;;8.85;5.70;;;28.70;47.80;;;;;;5076298;28;20434;-66
2023/05/13 08:33:31;;;;;;;9.07;5.90;;;27.30;47.90;;;;;;5076727;28;20029;-66
2023/05/13 08:35:59;;;;;;;7.82;5.50;;;27.80;93.00;;;;;;5076279;28;20033;-66
2023/05/13 08:38:24;;;;;;;13.02;5.50;;;27.40;73.20;;;;;;5075075;28;20450;-66
2023/05/13 08:40:50;;;;;;;8.52;5.55;;;28.00;65.50;;;;;;5076497;28;20055;-66
2023/05/13 08:43:16;;;;;;;6.75;4.97;;;28.10;56.80;;;;;;5076383;28;20028;-66
2023/05/13 08:45:46;;;;;;;8.10;5.60;;;28.80;93.30;;;;;;5076314;28;20028;-66
2023/05/13 08:48:14;;;;;;;12.73;5.60;;;28.00;99.90;;;;;;5076232;28;20029;-66
2023/05/13 08:50:40;;;;;;;8.93;5.53;;;28.60;99.90;;;;;;5076279;28;20150;-66
2023/05/13 08:53:05;;;;;;;9.02;5.90;;;27.00;99.90;;;;;;5075871;28;20491;-66
2023/05/13 08:55:31;;;;;;;9.57;5.40;;;27.00;99.90;;;;;;5076167;28;20032;-66
2023/05/13 08:57:57;;;;;;;7.30;5.35;;;27.50;99.90;;;;;;5075848;28;20032;-66
2023/05/13 09:00:23;;;;;;;10.63;5.03;;;28.00;99.90;;;;;;5075163;28;20044;-66
2023/05/13 09:02:49;;;;;;;8.57;5.18;;;27.90;99.90;;;;;;5075476;28;20031;-66
2023/05/13 09:05:17;;;;;;;7.03;5.68;;;27.40;99.90;;;;;;5074861;28;20413;-66
2023/05/13 09:07:43;;;;;;;6.53;4.90;;;27.80;1.00;;;;;;5074209;28;20027;-66
2023/05/13 09:10:09;;;;;;;6.95;5.47;;;28.40;1.00;;;;;;5074162;28;20111;-66
2023/05/13 09:12:44;;;;;;;8.30;5.20;;;28.30;99.90;;;;;;5074169;28;20032;-66
2023/05/13 09:15:11;;;;;;;6.38;5.50;;;28.30;1.00;;;;;;5075548;28;20056;-66
2023/05/13 09:17:38;;;;;;;7.82;5.63;;;27.00;99.90;;;;;;5074570;28;20020;-66
2023/05/13 09:20:10;;;;;;;10.55;5.13;;;26.50;99.90;;;;;;5075218;28;20024;-66
2023/05/13 09:22:39;;;;;;;8.48;5.50;;;27.30;99.90;;;;;;5075564;28;20534;-66
2023/05/13 09:25:10;;;;;;;9.77;5.50;;;27.50;99.90;;;;;;5075684;28;20024;-66
2023/05/13 09:27:37;;;;;;;7.20;5.18;;;27.80;99.90;;;;;;5075019;28;20028;-66
2023/05/13 09:30:03;;;;;;;8.93;5.40;;;27.90;99.90;;;;;;5074746;28;20142;-66
2023/05/13 09:32:29;;;;;;;6.70;5.47;;;28.20;99.90;;;;;;5075048;28;20111;-66
2023/05/13 09:34:55;;;;;;;7.70;6.13;;;28.30;99.90;;;;;;5075475;28;20169;-66
2023/05/13 09:37:23;;;;;;;9.18;5.93;;;26.70;99.90;;;;;;5075378;28;20502;-66
2023/05/13 09:39:51;;;;;;;7.25;5.93;;;26.00;99.90;;;;;;5074916;28;20446;-66
2023/05/13 09:42:18;;;;;;;6.88;5.68;;;27.20;99.90;;;;;;5073187;28;20082;-66
2023/05/13 09:44:44;;;;;;;7.97;6.28;;;27.30;99.90;;;;;;5074663;28;20024;-66
2023/05/13 09:47:12;;;;;;;9.48;5.97;;;26.90;1.00;;;;;;5075117;28;20025;-66
2023/05/13 09:49:40;;;;;;;6.97;6.03;;;26.80;99.90;;;;;;5073357;28;20119;-65
2023/05/13 09:52:10;;;;;;;9.48;6.30;;;25.90;99.90;;;;;;5073012;28;20036;-67
2023/05/13 09:54:36;;;;;;;6.95;5.88;;;26.20;1.00;;;;;;5075005;28;20033;-67
2023/05/13 09:57:02;;;;;;;8.20;5.95;;;26.90;1.00;;;;;;5074647;28;20024;-67
2023/05/13 09:59:32;;;;;;;8.48;5.72;;;27.10;99.90;;;;;;5073601;28;20024;-66
2023/05/13 10:01:59;;;;;;;11.50;5.72;;;28.00;1.00;;;;;;5074180;28;20115;-66
2023/05/13 10:04:25;;;;;;;10.00;5.57;;;28.20;1.00;;;;;;5073845;28;20082;-66
2023/05/13 10:06:51;;;;;;;7.75;5.90;;;28.40;1.00;;;;;;5074790;28;20024;-67
2023/05/13 10:09:17;;;;;;;8.65;5.85;;;27.50;1.00;;;;;;5074193;28;20150;-67
2023/05/13 10:11:47;;;;;;;9.20;5.95;;;28.00;1.00;;;;;;5073988;28;20029;-68
2023/05/13 10:14:12;;;;;;;7.95;5.35;;;27.70;1.00;;;;;;5074060;28;20036;-67
2023/05/13 10:16:38;;;;;;;11.27;6.00;;;27.40;1.00;;;;;;5074645;28;20029;-67
2023/05/13 10:19:04;;;;;;;7.13;5.15;;;27.50;99.90;;;;;;5074214;28;20032;-67
2023/05/13 10:21:31;;;;;;;8.20;5.15;;;27.60;99.90;;;;;;5073834;28;20028;-66
2023/05/13 10:23:57;;;;;;;8.20;5.38;;;28.20;99.90;;;;;;5074154;28;20528;-67
2023/05/13 10:26:23;;;;;;;5.88;5.25;;;28.30;99.90;;;;;;5074484;28;20043;-67
2023/05/13 10:28:49;;;;;;;8.40;4.90;;;27.40;99.90;;;;;;5074611;28;20020;-66
2023/05/13 10:31:16;;;;;;;6.28;5.57;;;27.70;99.90;;;;;;5074351;28;20047;-66
2023/05/13 10:33:42;;;;;;;7.65;4.80;;;27.50;99.90;;;;;;5073784;28;20029;-67
2023/05/13 10:36:41;;;;;;;7.88;5.18;;;27.50;99.90;;;;;;5073725;28;20048;-66
2023/05/13 10:39:26;;;;;;;11.52;4.82;;;26.80;99.90;;;;;;5073603;28;20145;-66
2023/05/13 10:42:32;;;;;;;6.43;4.40;;;27.00;99.90;;;;;;5074234;28;20033;-67
2023/05/13 10:44:57;;;;;;;10.20;5.38;;;27.10;99.90;;;;;;5073340;28;20423;-66
2023/05/13 10:47:23;;;;;;;9.43;4.85;;;26.40;99.90;;;;;;5072999;28;20060;-66
2023/05/13 10:49:51;;;;;;;7.95;4.97;;;26.40;99.90;;;;;;5074162;28;20031;-67
2023/05/13 10:52:16;;;;;;;7.40;4.97;;;26.10;99.90;;;;;;5073522;28;20032;-66
2023/05/13 10:54:42;;;;;;;8.93;5.13;;;25.70;99.90;;;;;;5073785;28;20348;-67
2023/05/13 10:57:08;;;;;;;7.00;4.68;;;25.60;99.90;;;;;;5073786;28;20029;-66
2023/05/13 10:59:36;;;;;;;10.77;5.15;;;25.60;99.90;;;;;;5072293;28;20032;-66
2023/05/13 11:02:21;;;;;;;7.22;4.60;;;25.50;99.90;;;;;;5073323;28;20045;-66
2023/05/13 11:05:04;;;;;;;7.10;4.88;;;25.40;99.90;;;;;;5073710;28;20021;-66
2023/05/13 11:07:29;;;;;;;8.60;5.55;;;25.40;99.90;;;;;;5072526;28;20107;-66
2023/05/13 11:09:55;;;;;;;9.55;5.28;;;25.20;99.90;;;;;;5073996;28;20071;-66
2023/05/13 11:12:21;;;;;;;5.40;4.80;;;25.20;99.90;;;;;;5073599;28;20062;-66
2023/05/13 11:14:46;;;;;;;7.32;5.00;;;25.20;99.90;;;;;;5073664;28;20024;-66
2023/05/13 11:17:13;;;;;;;7.22;5.28;;;25.10;99.90;;;;;;5073561;28;20032;-66
2023/05/13 11:19:48;;;;;;;6.30;5.20;;;25.20;99.90;;;;;;5073029;28;20477;-66
2023/05/13 11:22:23;;;;;;;9.25;5.47;;;25.00;99.90;;;;;;5073174;28;20584;-66
2023/05/13 11:25:08;;;;;;;8.60;5.25;;;24.90;99.90;;;;;;5074049;28;20077;-66
2023/05/13 11:27:41;;;;;;;8.50;5.22;;;25.00;99.90;;;;;;5073503;28;20082;-66
2023/05/13 11:30:27;;;;;;;7.00;4.90;;;24.90;99.90;;;;;;5073784;28;20032;-66
2023/05/13 11:32:55;;;;;;;7.70;5.47;;;24.70;99.90;;;;;;5072898;28;20170;-66
2023/05/13 11:35:23;;;;;;;10.93;5.50;;;24.90;99.90;;;;;;5073426;28;20097;-66
2023/05/13 11:37:49;;;;;;;8.15;5.18;;;25.10;99.90;;;;;;5072199;28;20033;-66
2023/05/13 11:40:24;;;;;;;10.57;5.45;;;25.10;99.90;;;;;;5073668;28;20024;-66
2023/05/13 11:42:50;;;;;;;7.57;5.35;;;24.90;99.90;;;;;;5073073;28;20028;-66
2023/05/13 11:45:16;;;;;;;5.97;5.35;;;25.10;99.90;;;;;;5073266;28;20390;-66
2023/05/13 11:47:42;;;;;;;7.13;4.90;;;25.20;99.90;;;;;;5072589;28;20052;-66
2023/05/13 11:50:26;;;;;;;9.77;4.78;;;25.20;99.90;;;;;;5073553;28;20021;-66
2023/05/13 11:52:54;;;;;;;9.77;5.10;;;25.60;99.90;;;;;;5073023;28;20107;-66
2023/05/13 11:58:03;;;;;;;9.95;5.18;;;25.20;99.90;;;;;;5112021;27;20457;-67
2023/05/13 12:00:30;;;;;;;8.85;5.35;;;25.50;99.90;;;;;;5111700;28;20481;-67
2023/05/13 12:02:57;;;;;;;7.45;4.80;;;25.70;99.90;;;;;;5111297;28;20392;-67
2023/05/13 12:05:23;;;;;;;8.15;5.20;;;25.70;99.90;;;;;;5111492;28;20386;-67
2023/05/13 12:07:49;;;;;;;5.55;5.05;;;25.70;99.90;;;;;;5111732;28;20029;-67
2023/05/13 12:10:15;;;;;;;12.82;4.93;;;25.80;99.90;;;;;;5111707;28;20031;-67
2023/05/13 12:12:43;;;;;;;7.72;4.93;;;25.30;99.90;;;;;;5110554;28;20574;-67
2023/05/13 12:15:12;;;;;;;8.32;5.50;;;24.60;99.90;;;;;;5111368;28;20042;-67
2023/05/13 12:17:37;;;;;;;8.23;5.63;;;23.90;99.90;;;;;;5109786;28;20032;-67
2023/05/13 12:25:44;;;;;;;7.15;5.18;;;23.70;99.90;;;;;;5111966;27;20500;-67
2023/05/13 12:28:22;;;;;;;9.02;5.75;;;23.60;99.90;;;;;;5111138;28;20118;-67
2023/05/13 12:31:05;;;;;;;9.82;5.53;;;23.70;99.90;;;;;;5111523;28;20059;-67
2023/05/13 12:33:32;;;;;;;6.97;5.32;;;24.00;99.90;;;;;;5111618;28;20428;-67
2023/05/13 12:36:19;;;;;;;7.10;4.38;;;24.70;99.90;;;;;;5110198;28;20500;-67
2023/05/13 12:39:05;;;;;;;5.47;4.35;;;24.60;99.90;;;;;;5111272;28;20077;-67
2023/05/13 12:41:36;;;;;;;9.52;4.72;;;24.20;99.90;;;;;;5110871;28;20024;-67
2023/05/13 12:44:07;;;;;;;10.25;4.60;;;24.10;99.90;;;;;;5109814;28;20035;-67
2023/05/13 12:46:33;;;;;;;6.20;5.05;;;24.10;99.90;;;;;;5111287;28;20124;-67
2023/05/13 12:49:02;;;;;;;7.15;4.97;;;24.30;99.90;;;;;;5110375;28;20050;-67